Nearby METAR Reports

 

KNUQ - Moffett Nas/Mtn, California, USA
Distance from station: N 9mi, 14km
Updated: Tue, 27-Jun-2017 5:56pm PDT
Clear
Clear
 Wind from N
Wind: N 17 mph , 28 km/h
Temperature: 66°F , 19°C
Dew Point: 57°F , 14°C
Humidity: 73%
Barometer: 29.93 inHg , 1013.5 hPa
Clouds: Clear
Visibility: 10 miles , 16 km
2017/06/28 00:56 KNUQ 280056Z 35015KT 10SM CLR 19/14 A2993 RMK AO2 SLP138 T01940144
KSJC - San Jose, California, USA
Distance from station: NE 9mi, 14km
Updated: Tue, 27-Jun-2017 5:53pm PDT
Few Clouds
Few Clouds
 Wind from NW
Wind: NW 14 mph , 22 km/h
Temperature: 70°F , 21°C
Dew Point: 57°F , 14°C
Humidity: 64%
Barometer: 29.92 inHg , 1013.2 hPa
Clouds: Few Clouds
Visibility: 10 miles , 16 km
Cloud details: Few Clouds 1000 ft
2017/06/28 00:53 KSJC 280053Z 32012KT 10SM FEW010 21/14 A2992 RMK AO2 SLP132 T02110139
 
KRHV - San Jose/Reid, California, USA
Distance from station: ENE 12mi, 19km
Updated: Tue, 27-Jun-2017 6:47pm PDT
Clear
Clear
 Wind from NW
Wind: NW 14 mph , 22 km/h
Temperature: 72°F , 22°C
Dew Point: 54°F , 12°C
Humidity: 53%
Barometer: 29.94 inHg , 1013.9 hPa
Clouds: Clear
Visibility: 10 miles , 16 km
2017/06/28 01:47 KRHV 280147Z 32012KT 10SM SKC 22/12 A2994
KPAO - Palo Alto, California, USA
Distance from station: NNW 14mi, 23km
Updated: Tue, 27-Jun-2017 5:47pm PDT
Few Clouds
Few Clouds
 Wind from NNW
Wind: NNW 17 mph , 28 km/h
Temperature: 70°F , 21°C
Dew Point: 61°F , 16°C
Humidity: 73%
Barometer: 29.93 inHg , 1013.5 hPa
Clouds: Few Clouds
Visibility: 10 miles , 16 km
Cloud details: Few Clouds 2000 ft
2017/06/28 00:47 KPAO 280047Z 34015KT 10SM FEW020 21/16 A2993
 
KSQL - San Carlos Airpo, California, USA
Distance from station: NW 21mi, 34km
Updated: Tue, 27-Jun-2017 5:56pm PDT
Partly Cloudy
Partly Cloudy
 Wind from WSW
Wind: WSW 15 mph , 24 km/h, Gust: 21 mph , 33 km/h
Temperature: 66°F , 19°C
Dew Point: 54°F , 12°C
Humidity: 64%
Barometer: 29.94 inHg , 1013.9 hPa
Clouds: Partly Cloudy
Visibility: 10 miles , 16 km
Cloud details: Partly Cloudy 1300 ft
2017/06/28 00:56 KSQL 280056Z 25013G18KT 10SM SCT013 19/12 A2994 RMK FOG DSNT NORTH
KWVI - Watsonville, California, USA
Distance from station: SSE 27mi, 44km
Updated: Tue, 27-Jun-2017 5:53pm PDT
Clear
Clear
 Wind from E
Wind: E 10 mph , 17 km/h
Temperature: 70°F , 21°C
Dew Point: 57°F , 14°C
Humidity: 64%
Barometer: 29.92 inHg , 1013.2 hPa
Clouds: Clear
Visibility: 10 miles , 16 km
2017/06/28 00:53 KWVI 280053Z AUTO 09009KT 10SM CLR 21/14 A2992 RMK AO2 SLP132 T02060144
 
KHWD - Hayward, California, USA
Distance from station: N 28mi, 44km
Updated: Tue, 27-Jun-2017 5:54pm PDT
Mostly Cloudy
Mostly Cloudy
 Wind from NW
Wind: NW 10 mph , 17 km/h
Temperature: 64°F , 18°C
Dew Point: 54°F , 12°C
Humidity: 68%
Barometer: 29.94 inHg , 1013.9 hPa
Clouds: Mostly Cloudy
Visibility: 10 miles , 16 km
Cloud details: Mostly Cloudy 1400 ft
2017/06/28 00:54 KHWD 280054Z 31009KT 10SM BKN014 18/12 A2994 RMK AO2 SLP149 T01780117
KSFO - San Francisco, California, USA
Distance from station: NW 30mi, 49km
Updated: Tue, 27-Jun-2017 5:56pm PDT
Mostly Cloudy
Mostly Cloudy
 Wind from WSW
Wind: WSW 20 mph , 31 km/h, Gust: 29 mph , 46 km/h
Temperature: 61°F , 16°C
Dew Point: 54°F , 12°C
Humidity: 77%
Barometer: 29.94 inHg , 1013.9 hPa
Clouds: Mostly Cloudy
Visibility: 10 miles , 16 km
Cloud details: Partly Cloudy 700 ft
Mostly Cloudy 1200 ft
Mostly Cloudy 2700 ft
2017/06/28 00:56 KSFO 280056Z 25017G25KT 10SM SCT007 BKN012 BKN027 16/12 A2994 RMK AO2 SLP140 T01610117
 
KHAF - Half Moon Bay, California, USA
Distance from station: WNW 31mi, 50km
Updated: Tue, 27-Jun-2017 6:35pm PDT
Overcast
Overcast
 Wind from NW
Wind: NW 12 mph , 19 km/h
Temperature: 57°F , 14°C
Dew Point: 54°F , 12°C
Humidity: 88%
Barometer: 29.97 inHg , 1014.9 hPa
Clouds: Overcast
Visibility: 10 miles , 16 km
Cloud details: Overcast 900 ft
2017/06/28 01:35 KHAF 280135Z AUTO 32010KT 10SM OVC009 14/12 A2997 RMK AO2
KOAK - Oakland, California, USA
Distance from station: NNW 31mi, 50km
Updated: Tue, 27-Jun-2017 5:53pm PDT
Mostly Cloudy
Mostly Cloudy
 Wind from W
Wind: W 18 mph , 30 km/h
Temperature: 64°F , 18°C
Dew Point: 55°F , 13°C
Humidity: 73%
Barometer: 29.95 inHg , 1014.2 hPa
Clouds: Mostly Cloudy
Visibility: 10 miles , 16 km
Cloud details: Mostly Cloudy 1200 ft
2017/06/28 00:53 KOAK 280053Z 26016KT 10SM BKN012 18/13 A2995 RMK AO2 SLP141 T01780133
 
KLVK - Livermore, California, USA
Distance from station: NNE 31mi, 51km
Updated: Tue, 27-Jun-2017 5:53pm PDT
Clear
Clear
 Wind from W
Wind: W 18 mph , 30 km/h
Temperature: 70°F , 21°C
Dew Point: 54°F , 12°C
Humidity: 57%
Barometer: 29.89 inHg , 1012.2 hPa
Clouds: Clear
Visibility: 10 miles , 16 km
2017/06/28 00:53 KLVK 280053Z 28016KT 10SM CLR 21/12 A2989 RMK AO2 SLP120 T02110122
KCVH - Hollister Muni, California, USA
Distance from station: SE 42mi, 68km
Updated: Tue, 27-Jun-2017 6:35pm PDT
Clear
Clear
 Wind from WSW
Wind: WSW 17 mph , 28 km/h
Temperature: 70°F , 21°C
Dew Point: 54°F , 12°C
Humidity: 57%
Barometer: 29.90 inHg , 1012.5 hPa
Clouds: Clear
Visibility: 10 miles , 16 km
2017/06/28 01:35 KCVH 280135Z AUTO 25015KT 10SM CLR 21/12 A2990 RMK AO1
 
KSNS - Salinas, California, USA
Distance from station: SSE 48mi, 77km
Updated: Tue, 27-Jun-2017 6:23pm PDT
Overcast
Overcast
 Wind from W
Wind: W 14 mph , 22 km/h
Temperature: 63°F , 17°C
Dew Point: 55°F , 13°C
Humidity: 77%
Barometer: 29.95 inHg , 1014.2 hPa
Clouds: Overcast
Visibility: 10 miles , 16 km
Cloud details: Overcast 1400 ft
2017/06/28 01:23 KSNS 280123Z 27012KT 10SM OVC014 17/13 A2995 RMK AO2 T01720128
KMRY - Monterey, California, USA
Distance from station: SSE 49mi, 78km
Updated: Tue, 27-Jun-2017 6:42pm PDT
Overcast
Overcast
 Wind from WSW
Wind: WSW 9 mph , 15 km/h
Temperature: 61°F , 16°C
Dew Point: 55°F , 13°C
Humidity: 83%
Barometer: 29.97 inHg , 1014.9 hPa
Clouds: Overcast
Visibility: 10 miles , 16 km
Cloud details: Overcast 900 ft
2017/06/28 01:42 KMRY 280142Z 24008KT 10SM OVC009 16/13 A2997 RMK AO2 CIG 008V012 T01560128
 
KCCR - Concord, California, USA
Distance from station: N 50mi, 81km
Updated: Tue, 27-Jun-2017 5:53pm PDT
Clear
Clear
 Wind from WSW
Wind: WSW 14 mph , 22 km/h
Temperature: 75°F , 24°C
Dew Point: 55°F , 13°C
Humidity: 50%
Barometer: 29.88 inHg , 1011.9 hPa
Clouds: Clear
Visibility: 10 miles , 16 km
2017/06/28 00:53 KCCR 280053Z 25012KT 10SM CLR 24/13 A2988 RMK AO2 SLP106 T02440128

Metar display script from Saratoga-Weather.org